Time;durP1;ratioP1;P1;durP2;ratioP2;P2;SDS_P1;SDS_P2;PMS_P1;PMS_P2;Temp;Humidity;BMP_temperature;BMP_pressure;BME280_temperature;BME280_humidity;BME280_pressure;Samples;Min_cycle;Max_cycle;Signal;HPM_P1;HPM_P2
2023/04/01 00:01:30;;;;;;;1.63;0.30;;;;;;;-2.67;59.79;100873.00;5034378;28;20418;-74
2023/04/01 00:03:57;;;;;;;0.50;0.30;;;;;;;-2.68;59.61;100878.91;5034430;28;20053;-74
2023/04/01 00:06:24;;;;;;;0.95;0.20;;;;;;;-2.69;59.67;100874.63;5033855;28;20040;-74
2023/04/01 00:08:52;;;;;;;0.57;0.20;;;;;;;-2.71;60.09;100874.56;5032024;28;20053;-75
2023/04/01 00:11:19;;;;;;;0.35;0.20;;;;;;;-2.72;60.05;100877.94;5037234;28;20056;-74
2023/04/01 00:13:46;;;;;;;2.22;0.20;;;;;;;-2.72;60.17;100884.75;5029638;28;20413;-75
2023/04/01 00:16:14;;;;;;;2.22;0.30;;;;;;;-2.73;59.91;100890.69;5030064;28;20417;-76
2023/04/01 00:18:41;;;;;;;0.60;0.20;;;;;;;-2.74;60.13;100883.81;5027430;28;20457;-75
2023/04/01 00:21:08;;;;;;;3.80;0.90;;;;;;;-2.74;60.24;100891.47;5023047;28;20056;-74
2023/04/01 00:23:36;;;;;;;2.40;0.38;;;;;;;-2.75;60.35;100895.72;5036734;28;20053;-74
2023/04/01 00:26:05;;;;;;;3.55;0.30;;;;;;;-2.76;60.28;100888.88;5032665;28;20186;-75
2023/04/01 00:28:32;;;;;;;0.50;0.30;;;;;;;-2.77;60.32;100888.81;5031998;28;20144;-75
2023/04/01 00:30:59;;;;;;;0.60;0.20;;;;;;;-2.77;60.55;100893.91;5032462;28;20056;-75
2023/04/01 00:33:27;;;;;;;0.75;0.25;;;;;;;-2.80;60.69;100892.13;5041816;28;20118;-74
2023/04/01 00:35:54;;;;;;;2.47;0.30;;;;;;;-2.80;60.53;100889.56;5031752;28;20135;-75
2023/04/01 00:38:21;;;;;;;1.10;0.30;;;;;;;-2.82;60.56;100890.31;5022612;28;20045;-74
2023/04/01 00:40:48;;;;;;;2.53;0.30;;;;;;;-2.82;60.81;100895.44;5033982;28;20461;-75
2023/04/01 00:43:19;;;;;;;1.05;0.30;;;;;;;-2.83;60.93;100898.81;5030591;28;20556;-74
2023/04/01 00:45:47;;;;;;;1.60;0.30;;;;;;;-2.86;61.03;100897.00;5030223;28;20116;-75
2023/04/01 00:48:17;;;;;;;7.85;0.40;;;;;;;-2.86;61.12;100889.34;5032380;28;20057;-75
2023/04/01 00:50:47;;;;;;;0.40;0.20;;;;;;;-2.88;60.83;100890.09;5024524;28;20060;-74
2023/04/01 00:53:15;;;;;;;0.40;0.20;;;;;;;-2.90;61.17;100895.16;5030331;28;20041;-74
2023/04/01 00:55:47;;;;;;;1.65;0.30;;;;;;;-2.91;60.99;100890.84;5029066;28;20144;-75
2023/04/01 00:58:21;;;;;;;0.50;0.30;;;;;;;-2.92;61.14;100893.34;5032181;28;20064;-75
2023/04/01 01:00:51;;;;;;;0.57;0.20;;;;;;;-2.95;61.35;100891.56;5031543;28;20055;-75
2023/04/01 01:03:18;;;;;;;3.10;0.30;;;;;;;-2.97;61.29;100899.16;5038150;28;20049;-74
2023/04/01 01:06:05;;;;;;;0.60;0.10;;;;;;;-2.96;61.61;100898.34;5033136;28;20045;-75
2023/04/01 01:08:45;;;;;;;1.15;0.20;;;;;;;-2.96;61.84;100900.91;5039236;28;20742;-75
2023/04/01 01:11:12;;;;;;;0.40;0.20;;;;;;;-2.96;61.66;100898.34;5038963;28;20053;-75
2023/04/01 01:13:50;;;;;;;1.10;0.22;;;;;;;-2.97;61.58;100901.69;5038616;28;20057;-75
2023/04/01 01:16:26;;;;;;;0.30;0.20;;;;;;;-2.98;61.85;100904.22;5035226;28;20045;-74
2023/04/01 01:18:59;;;;;;;2.20;0.20;;;;;;;-2.99;61.73;100908.47;5036321;28;20042;-74
2023/04/01 01:21:52;;;;;;;0.80;0.20;;;;;;;-2.98;61.67;100909.31;5037243;28;20045;-74
2023/04/01 01:24:43;;;;;;;0.40;0.20;;;;;;;-3.01;61.77;100904.09;5036402;28;20043;-75
2023/04/01 01:27:12;;;;;;;2.10;0.20;;;;;;;-3.01;61.94;100909.22;5037188;28;20042;-74
2023/04/01 01:30:17;;;;;;;2.90;0.20;;;;;;;-3.01;61.92;100906.66;5028780;28;20132;-74
2023/04/01 01:33:17;;;;;;;0.40;0.10;;;;;;;-3.03;61.98;100906.59;5023206;28;20057;-75
2023/04/01 01:35:48;;;;;;;2.17;0.20;;;;;;;-3.05;61.97;100915.00;5032794;28;20053;-75
2023/04/01 01:38:18;;;;;;;0.73;0.30;;;;;;;-3.06;62.17;100916.69;5035100;28;20511;-74
2023/04/01 01:40:48;;;;;;;0.30;0.20;;;;;;;-3.06;62.20;100910.72;5042146;28;20050;-74
2023/04/01 01:43:21;;;;;;;0.80;0.20;;;;;;;-3.05;62.13;100917.56;5041684;28;20046;-74
2023/04/01 01:45:51;;;;;;;0.65;0.17;;;;;;;-3.06;62.17;100914.13;5040230;28;20387;-74
2023/04/01 01:48:20;;;;;;;0.47;0.15;;;;;;;-3.06;62.14;100914.13;5039220;28;20053;-75
2023/04/01 01:50:49;;;;;;;0.65;0.20;;;;;;;-3.05;62.30;100910.75;5041117;28;20056;-74
2023/04/01 01:53:16;;;;;;;0.38;0.20;;;;;;;-3.05;62.30;100920.97;5037461;28;20042;-75
2023/04/01 01:55:45;;;;;;;0.43;0.20;;;;;;;-3.05;62.34;100922.66;5041812;28;20612;-75
2023/04/01 01:58:18;;;;;;;0.32;0.20;;;;;;;-3.03;62.33;100919.34;5039934;28;20067;-75
2023/04/01 02:00:49;;;;;;;0.50;0.20;;;;;;;-3.02;62.23;100920.22;5038938;28;20481;-75
2023/04/01 02:03:18;;;;;;;1.80;0.20;;;;;;;-3.04;62.44;100914.22;5038766;28;20050;-76
2023/04/01 02:05:45;;;;;;;0.50;0.20;;;;;;;-3.02;62.45;100923.66;5037752;28;20049;-75
2023/04/01 02:08:17;;;;;;;2.05;0.30;;;;;;;-3.01;62.41;100925.41;5034671;28;20060;-74
2023/04/01 02:10:49;;;;;;;0.38;0.20;;;;;;;-3.00;62.42;100927.16;5040765;28;20049;-75
2023/04/01 02:13:23;;;;;;;0.60;0.30;;;;;;;-3.00;62.37;100934.81;5041804;28;20810;-75
2023/04/01 02:15:56;;;;;;;0.75;0.20;;;;;;;-3.00;62.28;100932.25;5036155;28;20502;-75
2023/04/01 02:18:24;;;;;;;0.43;0.20;;;;;;;-3.00;62.67;100931.38;5042904;28;20459;-74
2023/04/01 02:20:52;;;;;;;0.32;0.20;;;;;;;-3.00;62.69;100929.69;5037889;28;20053;-79
2023/04/01 02:23:21;;;;;;;3.72;0.20;;;;;;;-2.98;62.72;100938.31;5039348;28;20049;-67
2023/04/01 02:25:48;;;;;;;1.85;0.25;;;;;;;-2.98;62.63;100930.63;5038161;28;20049;-72
2023/04/01 02:28:20;;;;;;;0.73;0.17;;;;;;;-2.97;62.79;100929.81;5040187;28;20099;-72
2023/04/01 02:30:49;;;;;;;0.40;0.20;;;;;;;-2.97;62.82;100927.25;5036403;28;20048;-72
2023/04/01 02:33:16;;;;;;;0.55;0.30;;;;;;;-2.96;62.84;100923.91;5039813;28;20051;-72
2023/04/01 02:35:43;;;;;;;0.30;0.17;;;;;;;-2.96;62.96;100926.47;5037234;28;20417;-72
2023/04/01 02:38:10;;;;;;;0.70;0.20;;;;;;;-2.95;62.91;100930.75;5033916;28;20037;-72
2023/04/01 02:40:47;;;;;;;0.73;0.20;;;;;;;-2.95;62.58;100928.19;5038500;28;20064;-72
2023/04/01 02:43:14;;;;;;;2.90;0.20;;;;;;;-2.94;62.77;100929.94;5041874;28;20049;-72
2023/04/01 02:45:41;;;;;;;1.63;0.20;;;;;;;-2.93;63.07;100935.94;5036061;28;20049;-72
2023/04/01 02:48:08;;;;;;;0.30;0.17;;;;;;;-2.92;62.89;100930.00;5040973;28;20507;-72
2023/04/01 02:50:35;;;;;;;2.97;0.20;;;;;;;-2.91;62.90;100925.75;5040249;28;20076;-72
2023/04/01 02:53:06;;;;;;;1.45;0.20;;;;;;;-2.90;62.96;100932.59;5032829;28;20049;-72
2023/04/01 02:55:32;;;;;;;2.15;0.20;;;;;;;-2.90;62.66;100928.38;5034706;28;20047;-72
2023/04/01 02:58:01;;;;;;;0.35;0.20;;;;;;;-2.90;62.71;100927.50;5035297;28;20055;-72
2023/04/01 03:00:28;;;;;;;3.38;0.20;;;;;;;-2.90;62.78;100932.59;5033381;28;20049;-73
2023/04/01 03:02:56;;;;;;;0.90;0.20;;;;;;;-2.90;62.73;100927.50;5038207;28;20421;-73
2023/04/01 03:05:23;;;;;;;3.50;0.20;;;;;;;-2.91;62.80;100941.09;5033733;28;20072;-72
2023/04/01 03:07:49;;;;;;;1.15;0.20;;;;;;;-2.93;62.85;100935.94;5040634;28;20044;-72
2023/04/01 03:10:17;;;;;;;0.43;0.17;;;;;;;-2.94;62.90;100941.84;5039030;28;20763;-72
2023/04/01 03:12:44;;;;;;;0.95;0.20;;;;;;;-2.95;63.17;100940.13;5039279;28;20445;-71
2023/04/01 03:15:14;;;;;;;0.73;0.20;;;;;;;-2.96;63.17;100944.34;5041224;28;20128;-72
2023/04/01 03:17:42;;;;;;;0.77;0.20;;;;;;;-2.97;63.22;100942.59;5033240;28;20240;-72
2023/04/01 03:20:10;;;;;;;0.10;0.10;;;;;;;-2.95;63.26;100950.34;5042489;28;20060;-72
2023/04/01 03:22:38;;;;;;;0.75;0.17;;;;;;;-2.95;63.16;100947.78;5032486;28;20037;-72
2023/04/01 03:25:07;;;;;;;0.95;0.20;;;;;;;-2.95;63.23;100948.66;5037264;28;20061;-72
2023/04/01 03:27:34;;;;;;;0.25;0.10;;;;;;;-2.95;63.05;100956.31;5040216;28;20107;-72
2023/04/01 03:30:01;;;;;;;0.47;0.20;;;;;;;-2.96;63.22;100954.59;5033673;28;20056;-71
2023/04/01 03:32:29;;;;;;;0.20;0.10;;;;;;;-2.97;63.04;100963.03;5038776;28;20052;-72
2023/04/01 03:34:56;;;;;;;0.55;0.55;;;;;;;-2.97;63.15;100965.59;4994991;28;21234;-72
2023/04/01 03:37:24;;;;;;;0.38;0.15;;;;;;;-2.97;63.37;100963.03;5039288;28;20498;-72
2023/04/01 03:39:51;;;;;;;0.10;0.10;;;;;;;-2.97;63.17;100968.16;5039653;28;20155;-72
2023/04/01 03:42:18;;;;;;;0.65;0.20;;;;;;;-2.98;63.15;100961.31;5038736;28;20044;-72
2023/04/01 03:44:45;;;;;;;0.63;0.20;;;;;;;-2.99;63.07;100964.69;5036663;28;20568;-72
2023/04/01 03:47:12;;;;;;;0.47;0.17;;;;;;;-3.01;63.22;100963.75;5036165;28;20041;-72
2023/04/01 03:49:40;;;;;;;0.30;0.10;;;;;;;-3.00;63.35;100972.28;5033625;28;20068;-72
2023/04/01 03:52:10;;;;;;;1.25;0.20;;;;;;;-3.01;63.59;100971.41;5035271;28;20055;-72
2023/04/01 03:54:37;;;;;;;0.75;0.52;;;;;;;-3.01;63.35;100981.63;5037787;28;20049;-71
2023/04/01 03:57:04;;;;;;;0.20;0.10;;;;;;;-3.01;63.69;100981.63;5036447;28;20048;-72
2023/04/01 03:59:31;;;;;;;0.95;0.10;;;;;;;-3.00;63.29;100980.81;5033877;28;20417;-72
2023/04/01 04:01:58;;;;;;;0.70;0.10;;;;;;;-3.00;63.41;100979.94;5033003;28;20042;-73
2023/04/01 04:04:25;;;;;;;1.17;0.22;;;;;;;-3.02;63.49;100982.44;5039317;28;20060;-72
2023/04/01 04:06:54;;;;;;;0.47;0.30;;;;;;;-3.03;63.37;100978.13;5037641;28;20052;-72
2023/04/01 04:09:21;;;;;;;1.67;0.10;;;;;;;-3.01;63.59;100986.75;5038065;28;20037;-72
2023/04/01 04:11:48;;;;;;;0.65;0.10;;;;;;;-3.01;63.58;100985.88;5034649;28;20498;-72
2023/04/01 04:14:15;;;;;;;1.15;0.25;;;;;;;-3.02;63.59;100994.34;5033983;28;20580;-72
2023/04/01 04:16:42;;;;;;;0.73;0.30;;;;;;;-3.02;63.74;101000.31;5037862;28;20080;-72
2023/04/01 04:19:09;;;;;;;0.82;0.20;;;;;;;-3.01;63.78;100996.09;5036125;28;20063;-72
2023/04/01 04:21:36;;;;;;;1.65;0.20;;;;;;;-3.02;63.80;100994.34;5032435;28;20045;-72
2023/04/01 04:24:05;;;;;;;2.05;0.20;;;;;;;-3.01;63.89;101002.09;5039318;28;20049;-72
2023/04/01 04:26:32;;;;;;;3.03;0.65;;;;;;;-3.01;63.90;101004.63;5040537;28;20711;-72
2023/04/01 04:28:59;;;;;;;0.93;0.10;;;;;;;-3.00;64.01;101008.94;5038561;28;20044;-71
2023/04/01 04:31:27;;;;;;;1.60;0.20;;;;;;;-3.00;64.18;101010.63;5036856;28;20049;-72
2023/04/01 04:33:54;;;;;;;1.15;0.20;;;;;;;-2.98;63.85;101009.00;5036745;28;20049;-72
2023/04/01 04:36:22;;;;;;;0.65;0.20;;;;;;;-2.98;64.04;101017.53;5035487;28;20049;-72
2023/04/01 04:38:49;;;;;;;0.60;0.20;;;;;;;-2.98;64.12;101019.22;5034899;28;20152;-72
2023/04/01 04:41:19;;;;;;;0.52;0.10;;;;;;;-2.96;64.30;101025.25;5036902;28;20131;-72
2023/04/01 04:43:51;;;;;;;0.90;0.40;;;;;;;-2.97;64.18;101026.94;5037327;28;20158;-72
2023/04/01 04:46:18;;;;;;;2.10;0.10;;;;;;;-2.96;63.69;101026.16;5036256;28;20044;-72
2023/04/01 04:48:45;;;;;;;1.63;0.40;;;;;;;-2.94;64.35;101033.84;5033939;28;20052;-72
2023/04/01 04:51:15;;;;;;;0.38;0.20;;;;;;;-2.92;64.02;101031.38;5031732;28;20041;-72
2023/04/01 04:53:42;;;;;;;0.80;0.40;;;;;;;-2.92;64.15;101032.25;5036184;28;20110;-74
2023/04/01 04:56:09;;;;;;;0.43;0.10;;;;;;;-2.94;64.44;101023.63;5037550;28;20059;-72
2023/04/01 04:58:38;;;;;;;0.75;0.22;;;;;;;-2.89;64.26;101037.47;5036514;28;20502;-72
2023/04/01 05:01:10;;;;;;;0.73;0.73;;;;;;;-2.87;64.56;101033.31;5036116;28;20536;-72
2023/04/01 05:03:37;;;;;;;0.85;0.77;;;;;;;-2.85;64.47;101031.66;5034243;28;20469;-72
2023/04/01 05:06:05;;;;;;;0.95;0.20;;;;;;;-2.81;64.65;101035.25;5031915;28;20920;-72
2023/04/01 05:08:32;;;;;;;3.92;0.30;;;;;;;-2.79;65.11;101034.50;5035822;28;20986;-72
2023/04/01 05:10:59;;;;;;;1.00;0.22;;;;;;;-2.74;65.10;101047.44;5036268;28;20060;-72
2023/04/01 05:13:26;;;;;;;1.48;0.30;;;;;;;-2.71;64.82;101042.44;5037532;28;20509;-73
2023/04/01 05:15:55;;;;;;;2.38;0.20;;;;;;;-2.68;64.55;101042.56;5034311;28;20710;-72
2023/04/01 05:18:22;;;;;;;0.40;0.20;;;;;;;-2.66;64.89;101046.06;5038381;28;20409;-72
2023/04/01 05:20:50;;;;;;;3.78;0.20;;;;;;;-2.60;64.90;101050.53;5032690;28;20601;-72
2023/04/01 05:23:17;;;;;;;1.60;0.10;;;;;;;-2.61;64.91;101049.69;5033841;28;20057;-72
2023/04/01 05:25:44;;;;;;;2.40;0.50;;;;;;;-2.54;64.53;101061.88;5037054;28;20044;-71
2023/04/01 05:28:12;;;;;;;0.85;0.20;;;;;;;-2.52;64.61;101057.69;5036650;28;20075;-72
2023/04/01 05:30:42;;;;;;;2.97;0.30;;;;;;;-2.49;64.69;101062.06;5031253;28;20049;-72
2023/04/01 05:33:11;;;;;;;0.20;0.10;;;;;;;-2.46;64.78;101067.28;5039794;28;20506;-72
2023/04/01 05:35:38;;;;;;;0.40;0.20;;;;;;;-2.42;64.91;101070.84;5036325;28;20042;-72
2023/04/01 05:38:05;;;;;;;2.58;0.85;;;;;;;-2.40;64.49;101072.66;5036006;28;20758;-72
2023/04/01 05:40:33;;;;;;;1.40;0.30;;;;;;;-2.36;64.83;101069.41;5038504;28;20048;-72
2023/04/01 05:43:00;;;;;;;1.90;0.10;;;;;;;-2.34;64.88;101077.13;5036376;28;20052;-73
2023/04/01 05:45:27;;;;;;;0.55;0.30;;;;;;;-2.31;64.83;101080.66;5029557;28;20398;-72
2023/04/01 05:47:54;;;;;;;3.85;0.50;;;;;;;-2.28;64.98;101079.91;5030164;28;20049;-72
2023/04/01 05:50:23;;;;;;;0.28;0.15;;;;;;;-2.26;64.73;101079.16;5029019;28;20045;-72
2023/04/01 05:52:50;;;;;;;1.13;0.20;;;;;;;-2.23;64.67;101080.97;5032044;28;20064;-72
2023/04/01 05:55:17;;;;;;;3.33;0.20;;;;;;;-2.20;64.59;101086.19;5028350;28;20489;-72
2023/04/01 05:57:45;;;;;;;1.98;0.20;;;;;;;-2.16;64.90;101082.97;5033633;28;20061;-72
2023/04/01 06:00:14;;;;;;;0.43;0.20;;;;;;;-2.14;64.83;101083.88;5029496;28;20782;-72
2023/04/01 06:02:42;;;;;;;1.45;0.10;;;;;;;-2.08;65.04;101085.78;5033734;28;20045;-72
2023/04/01 06:05:16;;;;;;;1.65;0.30;;;;;;;-2.06;65.33;101095.28;5028215;28;20052;-72
2023/04/01 06:07:44;;;;;;;1.77;0.20;;;;;;;-2.03;65.02;101092.81;5028093;28;20067;-72
2023/04/01 06:10:15;;;;;;;0.80;0.13;;;;;;;-1.99;65.00;101088.72;5030528;28;20052;-72
2023/04/01 06:12:52;;;;;;;4.10;0.20;;;;;;;-1.94;65.31;101097.41;5032100;28;20068;-74
2023/04/01 06:15:29;;;;;;;0.63;0.35;;;;;;;-1.90;65.30;101099.28;5031963;28;20476;-70
2023/04/01 06:18:22;;;;;;;2.17;0.30;;;;;;;-1.86;65.10;101090.91;5032865;28;20417;-71
2023/04/01 06:21:01;;;;;;;0.30;0.20;;;;;;;-1.79;65.38;101097.13;5032698;28;20060;-70
2023/04/01 06:23:51;;;;;;;0.77;0.10;;;;;;;-1.74;65.10;101095.59;5037654;28;20463;-70
2023/04/01 06:26:26;;;;;;;1.13;0.20;;;;;;;-1.68;65.55;101100.06;5037261;28;20046;-70
2023/04/01 06:29:27;;;;;;;0.85;0.20;;;;;;;-1.63;65.01;101093.44;5042909;28;20044;-70
2023/04/01 06:32:13;;;;;;;1.60;0.30;;;;;;;-1.56;65.28;101099.66;5037348;28;20059;-71
2023/04/01 06:34:56;;;;;;;0.52;0.10;;;;;;;-1.50;65.13;101105.88;5036225;28;20140;-70
2023/04/01 06:37:47;;;;;;;2.35;0.60;;;;;;;-1.44;65.28;101108.66;5032417;28;20497;-70
2023/04/01 06:40:31;;;;;;;2.75;0.10;;;;;;;-1.38;65.15;101105.44;5040162;28;20046;-70
2023/04/01 06:43:06;;;;;;;1.85;0.55;;;;;;;-1.32;65.65;101112.47;5034657;28;20076;-70
2023/04/01 06:45:41;;;;;;;2.45;0.10;;;;;;;-1.27;65.65;101106.69;5036510;28;20049;-70
2023/04/01 06:48:36;;;;;;;1.75;0.20;;;;;;;-1.19;65.48;101114.63;5035813;28;20045;-70
2023/04/01 06:51:16;;;;;;;0.35;0.10;;;;;;;-1.10;65.12;101119.22;5040175;28;20155;-70
2023/04/01 06:53:50;;;;;;;0.73;0.20;;;;;;;-1.03;65.14;101121.16;5040574;28;20054;-70
2023/04/01 06:56:22;;;;;;;2.53;0.10;;;;;;;-0.98;64.71;101123.03;5037209;28;20052;-70
2023/04/01 06:58:54;;;;;;;0.45;0.10;;;;;;;-0.88;65.41;101118.22;4996277;28;20411;-70
2023/04/01 07:01:27;;;;;;;1.40;0.25;;;;;;;-0.81;65.58;101117.63;4996599;28;20510;-70
2023/04/01 07:03:57;;;;;;;0.85;0.10;;;;;;;-0.72;65.18;101129.03;5000343;28;20460;-70
2023/04/01 07:06:31;;;;;;;0.50;0.20;;;;;;;-0.64;65.38;101133.56;4996485;28;20047;-70
2023/04/01 07:09:03;;;;;;;1.50;0.20;;;;;;;-0.53;64.41;101139.94;4996026;28;20041;-70
2023/04/01 07:11:35;;;;;;;0.93;0.08;;;;;;;-0.40;64.73;101142.03;4997942;28;20053;-71
2023/04/01 07:14:07;;;;;;;0.40;0.05;;;;;;;-0.27;64.51;101146.75;4997399;28;20045;-70
2023/04/01 07:16:40;;;;;;;0.93;0.30;;;;;;;-0.12;64.49;101141.22;4996294;28;20058;-70
2023/04/01 07:19:13;;;;;;;0.65;0.10;;;;;;;0.02;64.28;101148.47;4999666;28;20047;-70
2023/04/01 07:21:46;;;;;;;4.55;0.10;;;;;;;0.15;63.79;101146.31;4998250;28;20049;-70
2023/04/01 07:24:20;;;;;;;1.55;0.10;;;;;;;0.28;63.28;101141.53;4999390;28;20434;-70
2023/04/01 07:26:50;;;;;;;3.58;0.20;;;;;;;0.40;62.48;101150.50;4998827;28;20755;-70
2023/04/01 07:29:17;;;;;;;1.27;0.70;;;;;;;0.53;62.71;101149.13;4994064;28;20072;-70
2023/04/01 07:32:10;;;;;;;0.45;0.10;;;;;;;0.71;62.88;101146.19;4997523;28;20056;-70
2023/04/01 07:34:47;;;;;;;0.20;0.10;;;;;;;0.89;62.78;101157.00;4998579;28;20046;-70
2023/04/01 07:37:18;;;;;;;0.70;0.10;;;;;;;1.04;62.04;101153.94;4992967;28;20053;-70
2023/04/01 07:39:55;;;;;;;2.40;0.10;;;;;;;1.24;61.74;101158.75;4991224;28;20056;-70
2023/04/01 07:42:33;;;;;;;1.42;0.20;;;;;;;1.41;60.89;101156.59;5001881;28;20046;-70
2023/04/01 07:45:08;;;;;;;2.05;0.08;;;;;;;1.56;61.85;101162.13;4996700;28;20056;-70
2023/04/01 07:47:46;;;;;;;4.85;0.15;;;;;;;1.75;60.64;101158.28;4999050;28;20060;-70
2023/04/01 07:50:23;;;;;;;2.38;0.20;;;;;;;1.91;60.35;101162.09;4997324;28;20049;-70
2023/04/01 07:53:00;;;;;;;0.40;0.10;;;;;;;2.02;58.92;101156.34;4999770;28;20058;-70
2023/04/01 07:55:33;;;;;;;0.30;0.10;;;;;;;2.20;57.88;101161.03;4990678;28;20058;-73
2023/04/01 07:58:06;;;;;;;3.75;0.10;;;;;;;2.35;58.27;101165.66;5020578;28;20053;-73
2023/04/01 08:00:42;;;;;;;0.75;0.10;;;;;;;2.50;58.02;101166.81;5037055;28;20054;-74
2023/04/01 08:03:21;;;;;;;0.70;0.08;;;;;;;2.67;57.81;101168.03;5029198;28;20048;-74
2023/04/01 08:05:56;;;;;;;0.40;0.10;;;;;;;2.85;56.98;101168.41;5029574;28;20068;-74
2023/04/01 08:08:34;;;;;;;1.38;0.10;;;;;;;2.99;56.95;101175.50;5037071;28;20053;-74
2023/04/01 08:11:10;;;;;;;3.95;0.10;;;;;;;3.16;56.81;101168.97;5038300;28;20049;-74
2023/04/01 08:13:45;;;;;;;3.83;0.10;;;;;;;3.35;57.07;101173.59;5038890;28;20055;-74
2023/04/01 08:16:21;;;;;;;0.45;0.10;;;;;;;3.56;56.38;101169.66;5038160;28;20505;-73
2023/04/01 08:18:57;;;;;;;0.30;0.10;;;;;;;3.73;55.94;101170.81;5038050;28;20041;-75
2023/04/01 08:21:28;;;;;;;0.45;0.10;;;;;;;3.87;55.66;101171.03;5033186;28;20052;-74
2023/04/01 08:23:58;;;;;;;0.57;0.10;;;;;;;4.01;55.18;101172.09;5037746;28;20493;-74
2023/04/01 08:26:34;;;;;;;1.17;0.10;;;;;;;4.14;55.34;101170.53;5040416;28;20052;-74
2023/04/01 08:29:09;;;;;;;1.70;0.10;;;;;;;4.23;54.29;101175.84;5038911;28;20749;-74
2023/04/01 08:31:41;;;;;;;0.28;0.10;;;;;;;4.25;53.24;101176.72;5038384;28;20057;-75
2023/04/01 08:34:18;;;;;;;0.47;0.10;;;;;;;4.31;53.10;101182.84;5040424;28;20049;-74
2023/04/01 08:36:50;;;;;;;0.32;0.10;;;;;;;4.37;53.24;101182.94;5038763;28;20068;-73
2023/04/01 08:39:23;;;;;;;1.48;0.10;;;;;;;4.46;53.28;101177.88;5036865;28;20049;-73
2023/04/01 08:42:17;;;;;;;1.75;0.30;;;;;;;4.55;53.45;101183.16;5035513;28;20051;-73
2023/04/01 08:45:09;;;;;;;0.00;0.00;;;;;;;4.60;52.45;101186.66;5037273;28;20053;-72
2023/04/01 08:48:09;;;;;;;0.80;0.10;;;;;;;4.66;52.39;101191.06;5014829;28;20134;-73
2023/04/01 08:50:57;;;;;;;2.13;0.10;;;;;;;4.70;52.37;101187.66;5036789;28;20531;-73
2023/04/01 08:53:37;;;;;;;0.40;0.00;;;;;;;4.74;52.01;101195.47;5037329;28;20052;-73
2023/04/01 08:56:14;;;;;;;1.83;0.10;;;;;;;4.76;51.87;101189.47;5034269;28;20476;-73
2023/04/01 08:59:00;;;;;;;1.60;0.10;;;;;;;4.74;49.31;101194.59;5035799;28;20493;-72
2023/04/01 09:01:47;;;;;;;0.20;0.00;;;;;;;4.73;50.77;101211.84;5038557;28;20110;-73
2023/04/01 09:04:31;;;;;;;0.20;0.10;;;;;;;4.72;50.60;101196.28;5035254;28;20041;-70
2023/04/01 09:07:14;;;;;;;0.38;0.10;;;;;;;4.74;50.58;101202.38;5034529;28;20045;-69
2023/04/01 09:10:20;;;;;;;1.25;0.10;;;;;;;4.77;51.15;101193.78;5026734;28;20107;-70
2023/04/01 09:13:00;;;;;;;0.35;0.10;;;;;;;4.82;50.87;101210.25;5034959;28;20401;-69
2023/04/01 09:15:59;;;;;;;0.95;0.00;;;;;;;4.86;50.64;101209.41;5030674;28;20497;-69
2023/04/01 09:19:07;;;;;;;2.22;0.10;;;;;;;4.89;50.68;101219.78;5030122;28;20041;-70
2023/04/01 09:21:59;;;;;;;1.25;0.10;;;;;;;4.92;50.42;101218.13;5026208;28;20045;-69
2023/04/01 09:25:22;;;;;;;0.85;0.10;;;;;;;4.91;47.64;101218.97;5026612;28;20047;-69
2023/04/01 09:27:57;;;;;;;0.35;0.10;;;;;;;4.90;48.68;101231.91;4952336;28;20049;-69
2023/04/01 09:30:41;;;;;;;0.20;0.00;;;;;;;4.76;49.26;101208.44;5024747;28;20057;-70
2023/04/01 09:33:54;;;;;;;1.00;0.10;;;;;;;4.96;47.98;101229.38;5032324;28;20052;-69
2023/04/01 09:36:44;;;;;;;0.15;0.08;;;;;;;4.97;48.26;101224.22;5008705;28;20577;-69
2023/04/01 09:39:28;;;;;;;2.22;0.10;;;;;;;4.99;47.65;101223.38;5037656;28;20489;-69
2023/04/01 09:42:07;;;;;;;0.88;0.05;;;;;;;5.02;48.17;101221.69;5035550;28;20490;-70
2023/04/01 09:44:36;;;;;;;0.80;0.08;;;;;;;5.05;49.00;101232.06;5034887;28;20057;-69
2023/04/01 09:47:17;;;;;;;0.63;0.10;;;;;;;5.10;47.68;101233.00;5032339;28;20056;-70
2023/04/01 09:50:01;;;;;;;1.13;0.10;;;;;;;5.14;48.30;101241.66;5037381;28;20046;-70
2023/04/01 09:52:39;;;;;;;1.65;0.10;;;;;;;5.16;47.06;101230.47;5034978;28;20075;-69
2023/04/01 09:55:22;;;;;;;1.10;0.10;;;;;;;5.18;46.56;101239.16;5032940;28;20110;-69
2023/04/01 09:58:24;;;;;;;0.00;0.00;;;;;;;5.19;47.29;101240.88;5034847;28;20085;-69
2023/04/01 10:01:27;;;;;;;1.10;0.10;;;;;;;5.22;47.50;101236.59;5037614;28;20045;-69
2023/04/01 10:04:24;;;;;;;0.10;0.00;;;;;;;5.27;47.85;101242.69;4991210;28;20432;-69
2023/04/01 10:07:34;;;;;;;0.95;0.10;;;;;;;5.33;48.05;101237.56;5030277;28;20048;-69
2023/04/01 10:10:36;;;;;;;1.10;0.08;;;;;;;5.36;47.96;101241.06;5038519;28;20064;-69
2023/04/01 10:13:49;;;;;;;0.25;0.10;;;;;;;5.41;47.82;101241.97;5039582;28;20052;-69
2023/04/01 10:16:48;;;;;;;0.85;0.22;;;;;;;5.43;47.53;101238.53;5033254;28;20049;-69
2023/04/01 10:19:48;;;;;;;0.00;0.00;;;;;;;5.46;47.72;101252.38;5012423;28;20124;-70
2023/04/01 10:22:43;;;;;;;1.40;0.00;;;;;;;5.49;46.79;101260.16;5032461;28;20045;-70
2023/04/01 10:25:31;;;;;;;0.45;0.10;;;;;;;5.47;46.17;101254.13;5036643;28;20052;-70
2023/04/01 10:28:20;;;;;;;0.25;0.00;;;;;;;5.46;45.99;101256.69;5043161;28;20042;-70
2023/04/01 10:31:14;;;;;;;1.65;0.00;;;;;;;5.46;46.86;101270.50;5036240;28;20045;-70
2023/04/01 10:34:32;;;;;;;1.25;0.10;;;;;;;5.49;46.78;101270.53;5036984;28;20183;-70
2023/04/01 10:37:01;;;;;;;0.98;0.00;;;;;;;5.48;44.99;101263.63;4996445;28;20176;-70
2023/04/01 10:40:03;;;;;;;0.10;0.00;;;;;;;5.46;45.85;101270.50;4999509;28;20050;-70
2023/04/01 10:43:08;;;;;;;0.47;0.00;;;;;;;5.45;45.99;101267.91;5029347;28;20469;-71
2023/04/01 10:46:22;;;;;;;1.38;0.00;;;;;;;5.45;46.05;101270.50;5031155;28;20780;-70
2023/04/01 10:49:11;;;;;;;1.08;0.05;;;;;;;5.44;46.15;101269.63;5038677;28;20052;-70
2023/04/01 10:52:13;;;;;;;0.63;0.20;;;;;;;5.46;46.24;101270.50;5039885;28;20140;-70
2023/04/01 10:55:00;;;;;;;1.65;0.10;;;;;;;5.45;45.43;101278.28;5039602;28;20056;-70
2023/04/01 10:57:53;;;;;;;0.00;0.00;;;;;;;5.44;44.96;101284.31;5040433;28;20045;-70
2023/04/01 11:00:33;;;;;;;0.70;0.00;;;;;;;5.41;44.86;101280.84;5034992;28;20048;-70
2023/04/01 11:03:29;;;;;;;0.05;0.00;;;;;;;5.43;45.41;101283.44;5038090;28;20056;-70
2023/04/01 11:06:48;;;;;;;0.00;0.00;;;;;;;5.41;45.52;101282.56;5038612;28;20152;-70
2023/04/01 11:10:05;;;;;;;0.32;0.17;;;;;;;5.39;44.59;101285.13;5039232;28;20504;-71
2023/04/01 11:13:05;;;;;;;0.90;0.00;;;;;;;5.38;45.12;101292.91;5036750;28;20044;-70
2023/04/01 11:16:13;;;;;;;0.30;0.00;;;;;;;5.39;45.39;101294.63;5032659;28;20045;-70
2023/04/01 11:19:08;;;;;;;0.20;0.00;;;;;;;5.38;45.36;101292.91;5026110;28;20409;-70
2023/04/01 11:22:10;;;;;;;1.40;0.10;;;;;;;5.40;44.76;101298.94;5037330;28;20095;-70
2023/04/01 11:25:12;;;;;;;0.28;0.00;;;;;;;5.37;44.91;101293.72;5033833;28;20127;-71
2023/04/01 11:28:04;;;;;;;0.20;0.00;;;;;;;5.36;44.90;101298.03;5035678;28;21487;-70
2023/04/01 11:30:42;;;;;;;0.75;0.00;;;;;;;5.38;44.86;101298.06;5040973;28;20041;-70
2023/04/01 11:33:21;;;;;;;0.35;0.00;;;;;;;5.37;45.18;101307.53;5041778;28;20053;-70
2023/04/01 11:36:07;;;;;;;0.00;0.00;;;;;;;5.37;44.78;101307.53;5033411;28;20049;-70
2023/04/01 11:39:01;;;;;;;0.00;0.00;;;;;;;5.38;44.60;101303.25;5036833;28;20552;-70
2023/04/01 11:41:37;;;;;;;1.48;0.00;;;;;;;5.36;43.16;101297.19;5031522;28;20099;-70
2023/04/01 11:44:20;;;;;;;0.00;0.00;;;;;;;5.36;43.69;101307.53;5039747;28;20821;-70
2023/04/01 11:47:13;;;;;;;0.10;0.03;;;;;;;5.34;41.57;101301.47;5034102;28;20049;-70
2023/04/01 11:49:54;;;;;;;2.40;0.00;;;;;;;5.31;41.85;101316.97;5035573;28;20420;-70
2023/04/01 11:52:42;;;;;;;0.00;0.00;;;;;;;5.29;42.53;101313.50;5039060;28;20767;-69
2023/04/01 11:55:41;;;;;;;0.57;0.00;;;;;;;5.28;43.04;101314.34;5031686;28;20041;-70
2023/04/01 11:58:54;;;;;;;0.13;0.00;;;;;;;5.28;43.72;101316.94;5024279;28;20049;-75
2023/04/01 12:01:35;;;;;;;0.03;0.00;;;;;;;5.28;43.31;101316.94;5037400;28;20805;-70
2023/04/01 12:04:31;;;;;;;0.20;0.10;;;;;;;5.28;43.89;101328.16;5038130;28;20041;-70
2023/04/01 12:07:07;;;;;;;0.13;0.07;;;;;;;5.27;43.98;101328.16;5037782;28;20044;-70
2023/04/01 12:09:47;;;;;;;0.00;0.00;;;;;;;5.28;43.69;101323.00;5032351;28;20049;-70
2023/04/01 12:12:21;;;;;;;0.00;0.00;;;;;;;5.25;44.35;101317.78;5038012;28;20056;-70
2023/04/01 12:15:00;;;;;;;1.05;0.38;;;;;;;5.25;44.63;101328.13;5038839;28;20052;-70